ID Time Temp Humidity Light PM2.5 PM10 Voltage Extra Firmware Position Fcnt TTN version Gateways Distance RSSI LSNR Radiosettings
2026-05-07 17:51:45 16°C 56.375% 3.31V v4 52.0803 / 5.04449 11118 ttn.v3 - -121 -12.5 868.1MHz, SF9BW125, 4/5CR
2026-05-07 15:32:29 16.5625°C 55.9375% 3.31V v4 52.0803 / 5.04449 11109 ttn.v3 - -122 -9.5 868.1MHz, SF9BW125, 4/5CR
2026-05-07 13:59:37 16.5625°C 53.6875% 3.31V v4 52.0803 / 5.04449 11103 ttn.v3 - -123 -14 868.1MHz, SF9BW125, 4/5CR
2026-05-07 13:44:09 16°C 57.125% 3.31V v4 52.0803 / 5.04449 11102 ttn.v3 - -125 -9.75 867.7MHz, SF9BW125, 4/5CR
2026-05-07 13:28:40 16.1875°C 62.4375% 3.31V v4 52.0803 / 5.04449 11101 ttn.v3 - -130 -15.25 868.5MHz, SF9BW125, 4/5CR
2026-05-07 09:05:45 11.9375°C 77.8125% 3.31V v4 52.0803 / 5.04449 11084 ttn.v3 - -124 -13 867.7MHz, SF9BW125, 4/5CR
2026-05-07 07:33:00 10.125°C 101.812% 3.32V v4 52.0803 / 5.04449 11078 ttn.v3 1.476km -128 -13.25 867.1MHz, SF9BW125, 4/5CR
2026-05-07 07:02:07 7.5625°C 109.062% 3.32V v4 52.0803 / 5.04449 11076 ttn.v3 1.476km -131 -15.25 867.9MHz, SF9BW125, 4/5CR
2026-05-07 04:58:36 7.5°C 101.562% 3.31V v4 52.0803 / 5.04449 11068 ttn.v3 1.476km -131 -14.5 867.9MHz, SF9BW125, 4/5CR
2026-05-07 04:43:09 7.75°C 100.875% 3.31V v4 52.0803 / 5.04449 11067 ttn.v3 - -128 -14.25 868.5MHz, SF9BW125, 4/5CR
2026-05-07 04:27:43 7.9375°C 101.75% 3.32V v4 52.0803 / 5.04449 11066 ttn.v3 1.476km -130 -14.5 867.7MHz, SF9BW125, 4/5CR
2026-05-07 03:41:23 8.375°C 97.5% 3.31V v4 52.0803 / 5.04449 11063 ttn.v3 - -130 -13.75 868.1MHz, SF9BW125, 4/5CR
2026-05-07 03:25:56 8.5°C 95.625% 3.32V v4 52.0803 / 5.04449 11062 ttn.v3 1.476km -129 -14.5 867.3MHz, SF9BW125, 4/5CR
2026-05-07 02:24:09 9.25°C 90.9375% 3.32V v4 52.0803 / 5.04449 11058 ttn.v3 2.732km -129 -13.5 867.9MHz, SF9BW125, 4/5CR
2026-05-06 21:32:36 12.3125°C 72.375% 3.31V v4 52.0803 / 5.04449 11039 ttn.v3 - -131 -19.5 868.1MHz, SF12BW125, 4/5CR
2026-05-06 21:15:08 12.375°C 68.625% 3.31V v4 No position 11038 ttn.v3 - -130 -13.75 867.9MHz, SF9BW125, 4/5CR
2026-05-06 20:44:13 12.4375°C 67.375% 3.31V v4 No position 11036 ttn.v3 - -120 -4.75 867.7MHz, SF9BW125, 4/5CR
2026-05-06 19:26:55 13.125°C 64.5% 3.31V v4 No position 11031 ttn.v3 - -129 -14.5 868.5MHz, SF9BW125, 4/5CR
2026-05-06 16:05:53 13.375°C 63.125% 3.31V v4 No position 11018 ttn.v3 - -128 -12.25 867.9MHz, SF9BW125, 4/5CR
2026-05-06 15:34:58 13.1875°C 61.8125% 3.31V v4 No position 11016 ttn.v3 - -123 -10.75 867.7MHz, SF9BW125, 4/5CR
2026-05-06 14:17:46 13.9375°C 55.875% 3.31V v4 No position 11011 ttn.v3 - -127 -13 868.1MHz, SF9BW125, 4/5CR
2026-05-06 12:29:24 12.5625°C 82.0625% 3.31V v4 No position 11004 ttn.v3 - -129 -14.75 868.5MHz, SF9BW125, 4/5CR
2026-05-06 11:12:05 13.5625°C 71.0625% 3.31V v4 No position 10999 ttn.v3 - -127 -13.25 868.5MHz, SF9BW125, 4/5CR
2026-05-06 10:10:15 12.9375°C 74.25% 3.31V v4 No position 10995 ttn.v3 - -128 -14.25 868.5MHz, SF9BW125, 4/5CR
2026-05-06 08:22:03 11.4375°C 96.75% 3.31V v4 No position 10988 ttn.v3 - -122 -10.5 867.7MHz, SF9BW125, 4/5CR
2026-05-06 07:04:47 10.5625°C 100.875% 3.31V v4 No position 10983 ttn.v3 - -130 -13.5 867.1MHz, SF9BW125, 4/5CR
2026-05-06 05:16:38 9.6875°C 101.562% 3.31V v4 No position 10976 ttn.v3 - -129 -15 868.1MHz, SF9BW125, 4/5CR
2026-05-06 05:01:12 9.75°C 100.625% 3.31V v4 No position 10975 ttn.v3 - -131 -14.5 867.3MHz, SF9BW125, 4/5CR
2026-05-06 03:43:57 10.375°C 90.0625% 3.31V v4 No position 10970 ttn.v3 - -124 -13.75 867.7MHz, SF9BW125, 4/5CR
2026-05-06 02:11:15 10.125°C 93.3125% 3.31V v4 No position 10964 ttn.v3 - -123 -7.75 867.1MHz, SF9BW125, 4/5CR
2026-05-05 20:48:51 11.8125°C 84.25% 3.31V v4 No position 10943 ttn.v3 - -133 -18.75 867.9MHz, SF12BW125, 4/5CR
2026-05-05 20:15:56 12.375°C 82.625% 3.31V v4 No position 10941 ttn.v3 - -123 -8 867.7MHz, SF9BW125, 4/5CR
2026-05-05 19:29:33 13.0625°C 78.1875% 3.31V v4 No position 10938 ttn.v3 - -127 -12.75 868.1MHz, SF9BW125, 4/5CR
2026-05-05 18:58:37 13.5625°C 76.3125% 3.31V v4 No position 10936 ttn.v3 - -128 -13.75 868.5MHz, SF9BW125, 4/5CR
2026-05-05 18:12:21 14.0625°C 74.0625% 3.31V v4 No position 10933 ttn.v3 - -128 -11.5 867.9MHz, SF9BW125, 4/5CR
2026-05-05 16:23:58 14.8125°C 73.375% 3.31V v4 No position 10926 ttn.v3 - -132 -15.25 867.1MHz, SF9BW125, 4/5CR
2026-05-05 15:37:34 14.9375°C 72.75% 3.31V v4 No position 10923 ttn.v3 - -128 -13 868.1MHz, SF9BW125, 4/5CR
2026-05-05 14:04:46 13.625°C 83.25% 3.31V v4 No position 10917 ttn.v3 - -122 -10.5 867.1MHz, SF9BW125, 4/5CR
2026-05-05 09:26:35 10°C 105.438% 3.31V v4 No position 10899 ttn.v3 - -129 -13.75 868.1MHz, SF9BW125, 4/5CR
2026-05-05 05:50:19 10°C 111.25% 3.31V v4 No position 10885 ttn.v3 - -126 -13.5 868.5MHz, SF9BW125, 4/5CR
2026-05-05 04:48:31 10.375°C 108.75% 3.31V v4 No position 10881 ttn.v3 - -130 -15.25 868.1MHz, SF9BW125, 4/5CR
2026-05-05 04:02:09 10.6875°C 107.688% 3.31V v4 No position 10878 ttn.v3 - -127 -10.5 867.1MHz, SF9BW125, 4/5CR
2026-05-05 01:43:04 11.875°C 106.188% 3.31V v4 No position 10869 ttn.v3 - -128 -14.5 868.1MHz, SF9BW125, 4/5CR
2026-05-05 01:27:37 12.125°C 105.75% 3.31V v4 No position 10868 ttn.v3 - -125 -10 867.1MHz, SF9BW125, 4/5CR
2026-05-05 01:12:09 12.3125°C 107.062% 3.31V v4 No position 10867 ttn.v3 - -128 -13 868.5MHz, SF9BW125, 4/5CR
2026-05-04 23:39:23 13°C 107.312% 3.31V v4 No position 10861 ttn.v3 - -127 -11.5 868.5MHz, SF9BW125, 4/5CR
2026-05-04 23:23:56 13.0625°C 108.625% 3.31V v4 No position 10860 ttn.v3 - -130 -14.25 867.3MHz, SF9BW125, 4/5CR
2026-05-04 22:37:33 13.375°C 107.688% 3.31V v4 No position 10857 ttn.v3 - -131 -15 868.1MHz, SF9BW125, 4/5CR
2026-05-04 20:33:49 14.625°C 103.25% 3.31V v4 No position 10849 ttn.v3 - -128 -13.5 868.5MHz, SF9BW125, 4/5CR
2026-05-04 20:04:58 15.0625°C 99.4375% 3.31V v4 No position 10847 ttn.v3 - -124 -14.5 867.1MHz, SF12BW125, 4/5CR
- -133 -18.25 867.1MHz, SF12BW125, 4/5CR
2026-05-04 19:47:29 15.625°C 99.3125% 3.31V v4 No position 10846 ttn.v3 - -127 -12.25 868.1MHz, SF9BW125, 4/5CR
2026-05-04 19:32:01 15.9375°C 97.375% 3.31V v4 No position 10845 ttn.v3 - -130 -13.25 867.9MHz, SF9BW125, 4/5CR
2026-05-04 18:14:37 17.5625°C 92.6875% 3.31V v4 No position 10840 ttn.v3 - -128 -12.75 868.1MHz, SF9BW125, 4/5CR
2026-05-04 16:41:41 19.5°C 79.625% 3.31V v4 No position 10834 ttn.v3 - -128 -13.5 868.1MHz, SF9BW125, 4/5CR
2026-05-04 15:24:14 19.5625°C 83.3125% 3.31V v4 No position 10829 ttn.v3 - -129 -15 867.3MHz, SF9BW125, 4/5CR
2026-05-04 14:53:15 19.3125°C 84.6875% 3.31V v4 No position 10827 ttn.v3 - -122 -7.75 867.1MHz, SF9BW125, 4/5CR
- -131 -14.25 867.1MHz, SF9BW125, 4/5CR
2026-05-04 13:35:49 18.1875°C 94.25% 3.31V v4 No position 10822 ttn.v3 - -128 -12.75 868.1MHz, SF9BW125, 4/5CR
2026-05-04 12:18:24 16.6875°C 109.25% 3.31V v4 No position 10817 ttn.v3 - -130 -15.5 867.1MHz, SF9BW125, 4/5CR
2026-05-04 12:02:56 16.25°C 114.312% 3.31V v4 No position 10816 ttn.v3 - -123 -13 868.1MHz, SF9BW125, 4/5CR
2026-05-04 10:30:07 14.3125°C 118.938% 3.31V v4 No position 10810 ttn.v3 - -129 -15.25 867.3MHz, SF9BW125, 4/5CR
2026-05-04 08:57:19 13.5°C 118.938% 3.31V v4 No position 10804 ttn.v3 - -129 -14.25 867.7MHz, SF9BW125, 4/5CR
2026-05-04 07:24:33 12.5625°C 118.938% 3.31V v4 No position 10798 ttn.v3 - -125 -14 868.1MHz, SF9BW125, 4/5CR
2026-05-04 06:53:38 12.25°C 118.938% 3.31V v4 No position 10796 ttn.v3 - -129 -14 868.5MHz, SF9BW125, 4/5CR
2026-05-04 04:34:32 11.4375°C 118.938% 3.31V v4 No position 10787 ttn.v3 - -128 -13.25 868.5MHz, SF9BW125, 4/5CR
2026-05-04 01:29:02 12.25°C 118.938% 3.31V v4 No position 10775 ttn.v3 - -129 -14 868.5MHz, SF9BW125, 4/5CR
2026-05-03 23:09:52 14.0625°C 118.938% 3.31V v4 No position 10766 ttn.v3 - -126 -10.75 867.7MHz, SF9BW125, 4/5CR
2026-05-03 21:21:35 14.875°C 118.938% 3.31V v4 No position 10759 ttn.v3 - -130 -14.75 868.1MHz, SF9BW125, 4/5CR
2026-05-03 20:50:38 15.125°C 118.938% 3.31V v4 No position 10757 ttn.v3 - -128 -14 868.5MHz, SF9BW125, 4/5CR
2026-05-03 19:48:45 15.375°C 118.938% 3.31V v4 No position 10753 ttn.v3 - -130 -14.5 868.1MHz, SF9BW125, 4/5CR
2026-05-03 19:19:53 15.5°C 118.938% 3.31V v4 No position 10751 ttn.v3 - -131 -19 868.5MHz, SF12BW125, 4/5CR
- -123 -20.5 868.5MHz, SF12BW125, 4/5CR
2026-05-03 18:00:31 15.4375°C 118.938% 3.31V v4 No position 10746 ttn.v3 - -122 -11 867.7MHz, SF9BW125, 4/5CR
2026-05-03 10:31:43 16.9375°C 109.875% 3.31V v4 No position 10717 ttn.v3 - -125 -15 868.1MHz, SF9BW125, 4/5CR
2026-05-03 04:35:56 13.5625°C 118.938% 3.31V v4 No position 10694 ttn.v3 - -122 -7.25 867.1MHz, SF9BW125, 4/5CR
2026-05-03 04:20:29 13.5625°C 118.938% 3.31V v4 No position 10693 ttn.v3 - -122 -9.5 868.1MHz, SF9BW125, 4/5CR
2026-05-03 03:34:05 13.375°C 118.938% 3.31V v4 No position 10690 ttn.v3 - -129 -13.75 867.7MHz, SF9BW125, 4/5CR
2026-05-03 02:16:46 13.6875°C 118.938% 3.31V v4 No position 10685 ttn.v3 - -122 -9.75 867.1MHz, SF9BW125, 4/5CR
2026-05-03 01:45:50 13.6875°C 118.938% 3.31V v4 No position 10683 ttn.v3 - -128 -13.25 867.9MHz, SF9BW125, 4/5CR
2026-05-03 01:14:54 13.6875°C 117.5% 3.31V v4 No position 10681 ttn.v3 - -122 -7.75 867.7MHz, SF9BW125, 4/5CR
2026-05-02 23:11:08 16.625°C 64.625% 3.31V v4 No position 10673 ttn.v3 - -127 -12.25 868.5MHz, SF9BW125, 4/5CR
2026-05-02 21:22:45 18.0625°C 64.4375% 3.31V v4 No position 10666 ttn.v3 - -123 -11.25 867.1MHz, SF9BW125, 4/5CR
2026-05-02 20:20:54 19.625°C 61.6875% 3.31V v4 No position 10662 ttn.v3 - -128 -14 868.5MHz, SF9BW125, 4/5CR
2026-05-02 19:34:18 20.5°C 60.75% 3.31V v4 No position 10659 ttn.v3 - -130 -15 868.1MHz, SF9BW125, 4/5CR
2026-05-02 19:18:48 21°C 60.8125% 3.31V v4 No position 10658 ttn.v3 - -125 -11 867.1MHz, SF9BW125, 4/5CR
2026-05-02 18:34:23 22.0625°C 58.0625% 3.31V v4 No position 10655 ttn.v3 - -125 -21.2 867.9MHz, SF12BW125, 4/5CR
2026-05-02 17:45:50 22.5625°C 58.5625% 3.31V v4 No position 10652 ttn.v3 - -128 -15 868.5MHz, SF9BW125, 4/5CR
2026-05-02 16:43:48 22.875°C 61.25% 3.31V v4 No position 10648 ttn.v3 - -120 -12.75 868.1MHz, SF9BW125, 4/5CR
2026-05-02 11:33:40 20.125°C 75.6875% 3.31V v4 No position 10628 ttn.v3 - -128 -13.25 868.5MHz, SF9BW125, 4/5CR
2026-05-02 10:31:43 16.5625°C 76% 3.31V v4 No position 10624 ttn.v3 - -121 -11.5 868.1MHz, SF9BW125, 4/5CR
- -129 -14 868.1MHz, SF9BW125, 4/5CR
2026-05-02 06:24:20 9.9375°C 82.875% 3.31V v4 No position 10608 ttn.v3 - -119 -4.25 867.1MHz, SF9BW125, 4/5CR
- -131 -15.25 867.1MHz, SF9BW125, 4/5CR
2026-05-02 06:08:53 9.9375°C 87.375% 3.31V v4 No position 10607 ttn.v3 - -127 -12.5 868.5MHz, SF9BW125, 4/5CR
2026-05-02 03:49:49 10.6875°C 80.4375% 3.32V v4 No position 10598 ttn.v3 - -127 -13 868.5MHz, SF9BW125, 4/5CR
2026-05-02 03:03:27 11.0625°C 76.125% 3.32V v4 No position 10595 ttn.v3 - -123 -10.75 867.7MHz, SF9BW125, 4/5CR
2026-05-02 01:46:10 12.125°C 68.875% 3.31V v4 No position 10590 ttn.v3 - -124 -10.75 867.1MHz, SF9BW125, 4/5CR
2026-05-02 01:15:14 12.75°C 66.0625% 3.31V v4 No position 10588 ttn.v3 - -126 -14 867.9MHz, SF9BW125, 4/5CR
2026-05-01 23:57:54 14.5°C 59.1875% 3.31V v4 No position 10583 ttn.v3 - -129 -13.75 868.5MHz, SF9BW125, 4/5CR
2026-05-01 18:17:05 23.875°C 33.125% 3.31V v4 No position 10561 ttn.v3 - -119 -7 868.1MHz, SF9BW125, 4/5CR
2026-05-01 17:48:08 24°C 27.875% 3.31V v4 No position 10559 ttn.v3 - -131 -20.75 868.5MHz, SF12BW125, 4/5CR
2026-05-01 16:44:03 24°C 27.5% 3.31V v4 No position 10555 ttn.v3 - -122 -12 868.1MHz, SF9BW125, 4/5CR
2026-05-01 16:13:01 23.875°C 28.5% 3.31V v4 No position 10553 ttn.v3 - -129 -15 868.5MHz, SF9BW125, 4/5CR
2026-05-01 13:53:24 22.6875°C 29.4375% 3.31V v4 No position 10544 ttn.v3 - -131 -14 867.1MHz, SF9BW125, 4/5CR
2026-05-01 12:35:52 21.5625°C 35.0625% 3.31V v4 No position 10539 ttn.v3 - -129 -13.75 868.1MHz, SF9BW125, 4/5CR
2026-05-01 08:43:37 14.4375°C 55.125% 3.31V v4 No position 10524 ttn.v3 - -122 -7 867.1MHz, SF9BW125, 4/5CR
2026-05-01 08:12:40 16.5°C 50% 3.31V v4 No position 10522 ttn.v3 - -126 -15.5 867.9MHz, SF9BW125, 4/5CR
2026-05-01 06:39:55 10°C 68.9375% 3.31V v4 No position 10516 ttn.v3 - -125 -14.25 867.3MHz, SF9BW125, 4/5CR
2026-05-01 06:09:01 9.9375°C 67.0625% 3.32V v4 No position 10514 ttn.v3 - -120 -6.25 867.1MHz, SF9BW125, 4/5CR
2026-05-01 05:07:13 10.3125°C 67% 3.31V v4 No position 10510 ttn.v3 - -119 -7.25 867.7MHz, SF9BW125, 4/5CR
2026-05-01 03:03:35 11.1875°C 64.5% 3.31V v4 No position 10502 ttn.v3 - -126 -11.25 867.9MHz, SF9BW125, 4/5CR
2026-05-01 01:30:49 12.9375°C 56.1875% 3.31V v4 No position 10496 ttn.v3 - -128 -12 867.3MHz, SF9BW125, 4/5CR
2026-04-30 23:58:02 14.125°C 50.0625% 3.31V v4 No position 10490 ttn.v3 - -132 -15.25 867.7MHz, SF9BW125, 4/5CR
2026-04-30 21:23:18 16.625°C 36.5% 3.31V v4 No position 10480 ttn.v3 - -121 -8.25 867.7MHz, SF9BW125, 4/5CR
2026-04-30 21:07:49 16.8125°C 37.3125% 3.31V v4 No position 10479 ttn.v3 - -119 -7.25 868.1MHz, SF9BW125, 4/5CR
2026-04-30 19:34:55 18.8125°C 31% 3.31V v4 No position 10473 ttn.v3 - -129 -14.5 868.1MHz, SF9BW125, 4/5CR
2026-04-30 18:01:57 20.3125°C 27.6875% 3.31V v4 No position 10467 ttn.v3 - -128 -12.75 868.1MHz, SF9BW125, 4/5CR
2026-04-30 17:46:27 20.375°C 27.875% 3.31V v4 No position 10466 ttn.v3 - -130 -13.75 867.3MHz, SF9BW125, 4/5CR
2026-04-30 17:02:03 20.625°C 28.9375% 3.31V v4 No position 10463 ttn.v3 - -124 -13 867.1MHz, SF12BW125, 4/5CR
2026-04-30 15:11:34 19.6875°C 28% 3.31V v4 No position 10456 ttn.v3 - -128 -13 868.1MHz, SF9BW125, 4/5CR
2026-04-30 13:54:07 19°C 32.5% 3.31V v4 No position 10451 ttn.v3 - -126 -12.5 867.9MHz, SF9BW125, 4/5CR
- -132 -16 867.9MHz, SF9BW125, 4/5CR
2026-04-30 13:38:38 18.625°C 32.25% 3.31V v4 No position 10450 ttn.v3 - -121 -12 868.1MHz, SF9BW125, 4/5CR
2026-04-30 10:32:54 14.625°C 38.0625% 3.31V v4 No position 10438 ttn.v3 - -124 -13 868.1MHz, SF9BW125, 4/5CR
2026-04-30 09:15:35 12.75°C 42.4375% 3.31V v4 No position 10433 ttn.v3 - -126 -11.5 867.1MHz, SF9BW125, 4/5CR
2026-04-30 08:44:40 12.25°C 48.375% 3.31V v4 No position 10431 ttn.v3 - -127 -12.25 867.9MHz, SF9BW125, 4/5CR
2026-04-30 07:27:22 9.0625°C 57% 3.31V v4 No position 10426 ttn.v3 - -123 -13.5 868.1MHz, SF9BW125, 4/5CR
2026-04-30 06:56:29 8.3125°C 59.1875% 3.31V v4 No position 10424 ttn.v3 - -126 -12.25 868.5MHz, SF9BW125, 4/5CR
2026-04-30 05:39:15 8.625°C 59.6875% 3.31V v4 No position 10419 ttn.v3 - -122 -9.75 867.7MHz, SF9BW125, 4/5CR
2026-04-30 04:22:01 9.6875°C 57.125% 3.31V v4 No position 10414 ttn.v3 - -122 -5.5 867.1MHz, SF9BW125, 4/5CR
2026-04-30 03:35:41 9.875°C 57.5% 3.31V v4 No position 10411 ttn.v3 - -129 -14.5 868.1MHz, SF9BW125, 4/5CR
2026-04-30 01:16:43 11.9375°C 48.5625% 3.31V v4 No position 10402 ttn.v3 - -130 -14.5 867.9MHz, SF9BW125, 4/5CR
2026-04-29 23:59:18 12.9375°C 46.125% 3.31V v4 No position 10397 ttn.v3 - -130 -14.25 867.3MHz, SF9BW125, 4/5CR
2026-04-29 23:28:22 13.375°C 45.6875% 3.31V v4 No position 10395 ttn.v3 - -123 -7.5 867.1MHz, SF9BW125, 4/5CR
2026-04-29 17:16:57 19°C 27.6875% 3.31V v4 No position 10371 ttn.v3 - -127 -13 868.1MHz, SF9BW125, 4/5CR
2026-04-29 16:17:04 19.0625°C 26.8125% 3.31V v4 No position 10367 ttn.v3 - -123 -14.25 867.1MHz, SF12BW125, 4/5CR
- -134 -21.5 867.1MHz, SF12BW125, 4/5CR
2026-04-29 11:05:26 15.0625°C 45.0625% 3.31V v4 No position 10347 ttn.v3 - -126 -13 867.9MHz, SF9BW125, 4/5CR
2026-04-29 09:32:39 12.125°C 54.5% 3.31V v4 No position 10341 ttn.v3 - -129 -15 867.3MHz, SF9BW125, 4/5CR
2026-04-29 09:01:45 10.4375°C 56.6875% 3.31V v4 No position 10339 ttn.v3 - -121 -7.5 867.1MHz, SF9BW125, 4/5CR
2026-04-29 08:15:23 12.125°C 50% 3.31V v4 No position 10336 ttn.v3 - -127 -14.75 868.5MHz, SF9BW125, 4/5CR
2026-04-29 07:59:56 11.375°C 50.8125% 3.31V v4 No position 10335 ttn.v3 - -123 -12 867.7MHz, SF9BW125, 4/5CR
- -130 -13.5 867.7MHz, SF9BW125, 4/5CR
2026-04-29 07:13:36 7.9375°C 60.125% 3.31V v4 No position 10332 ttn.v3 - -120 -9 868.1MHz, SF9BW125, 4/5CR
- -130 -15 868.1MHz, SF9BW125, 4/5CR
2026-04-29 05:25:44 8.875°C 58.1875% 3.31V v4 No position 10325 ttn.v3 - -123 -9.25 867.7MHz, SF9BW125, 4/5CR
2026-04-29 03:06:35 10.375°C 52% 3.31V v4 No position 10316 ttn.v3 - -123 -7.25 867.7MHz, SF9BW125, 4/5CR
2026-04-29 01:49:19 10.875°C 54.5% 3.31V v4 No position 10311 ttn.v3 - -130 -14.75 868.1MHz, SF9BW125, 4/5CR
2026-04-28 23:45:40 12.6875°C 48.3125% 3.31V v4 No position 10303 ttn.v3 - -129 -14.75 868.5MHz, SF9BW125, 4/5CR
2026-04-28 19:38:09 17.3125°C 37.6875% 3.31V v4 No position 10287 ttn.v3 - -129 -13.5 868.1MHz, SF9BW125, 4/5CR
2026-04-28 18:05:15 18.75°C 33.625% 3.31V v4 No position 10281 ttn.v3 - -123 -9.75 868.1MHz, SF9BW125, 4/5CR
2026-04-28 17:49:45 18.9375°C 36.1875% 3.31V v4 No position 10280 ttn.v3 - -126 -11.25 867.1MHz, SF9BW125, 4/5CR
2026-04-28 16:32:19 18.9375°C 35.875% 3.31V v4 No position 10275 ttn.v3 - -130 -15.25 868.5MHz, SF9BW125, 4/5CR
2026-04-28 15:32:27 18.9375°C 37.1875% 3.31V v4 No position 10271 ttn.v3 - -131 -18.75 868.1MHz, SF12BW125, 4/5CR
2026-04-28 09:34:34 10.1875°C 78.5625% 3.31V v4 No position 10248 ttn.v3 - -119 -5.25 867.7MHz, SF9BW125, 4/5CR
2026-04-28 09:19:07 9.375°C 81.125% 3.31V v4 No position 10247 ttn.v3 - -125 -13.75 868.1MHz, SF9BW125, 4/5CR
2026-04-28 07:46:27 8.1875°C 93.3125% 3.32V v4 No position 10241 ttn.v3 - -128 -12.5 868.1MHz, SF9BW125, 4/5CR
2026-04-28 07:00:08 7.6875°C 96.5625% 3.31V v4 No position 10238 ttn.v3 - -120 -8.25 867.7MHz, SF9BW125, 4/5CR
2026-04-28 05:42:55 7.75°C 97.25% 3.31V v4 No position 10233 ttn.v3 - -129 -14.5 868.5MHz, SF9BW125, 4/5CR
2026-04-28 05:27:29 7.8125°C 96.8125% 3.31V v4 No position 10232 ttn.v3 - -124 -10.25 867.1MHz, SF9BW125, 4/5CR
2026-04-28 04:25:42 8.125°C 93.3125% 3.31V v4 No position 10228 ttn.v3 - -120 -7.25 867.7MHz, SF9BW125, 4/5CR
- -129 -13.25 867.7MHz, SF9BW125, 4/5CR
2026-04-28 02:22:09 9.0625°C 85.375% 3.31V v4 No position 10220 ttn.v3 - -123 -10.75 867.9MHz, SF9BW125, 4/5CR
2026-04-28 01:04:55 10.0625°C 88.25% 3.31V v4 No position 10215 ttn.v3 - -128 -13.25 868.5MHz, SF9BW125, 4/5CR
2026-04-28 00:18:34 10.75°C 84.625% 3.31V v4 No position 10212 ttn.v3 - -120 -4.75 867.1MHz, SF9BW125, 4/5CR
- -130 -12.75 867.1MHz, SF9BW125, 4/5CR
2026-04-27 23:16:45 11.625°C 74.8125% 3.31V v4 No position 10208 ttn.v3 - -119 -8.5 867.7MHz, SF9BW125, 4/5CR
2026-04-27 21:28:34 11.875°C 80.6875% 3.31V v4 No position 10201 ttn.v3 - -121 -8 868.1MHz, SF9BW125, 4/5CR
2026-04-27 21:13:06 12.0625°C 79.9375% 3.31V v4 No position 10200 ttn.v3 - -119 -6.75 867.7MHz, SF9BW125, 4/5CR
2026-04-27 19:40:21 13.6875°C 68.125% 3.31V v4 No position 10194 ttn.v3 - -130 -13.25 867.1MHz, SF9BW125, 4/5CR
2026-04-27 18:38:29 15°C 59.1875% 3.31V v4 No position 10190 ttn.v3 - -119 -14.25 867.7MHz, SF9BW125, 4/5CR
2026-04-27 18:23:01 15.375°C 56.1875% 3.31V v4 No position 10189 ttn.v3 - -120 -15.5 868.1MHz, SF9BW125, 4/5CR
2026-04-27 15:17:20 16°C 60.3125% 3.31V v4 No position 10177 ttn.v3 - -122 -13.5 868.1MHz, SF9BW125, 4/5CR
2026-04-27 14:48:28 16°C 56.3125% 3.31V v4 No position 10175 ttn.v3 - -131 -17.25 868.5MHz, SF12BW125, 4/5CR
2026-04-27 13:44:34 16.4375°C 50.5% 3.31V v4 No position 10171 ttn.v3 - -122 -9.25 868.1MHz, SF9BW125, 4/5CR
2026-04-27 13:29:05 16.125°C 49.75% 3.31V v4 No position 10170 ttn.v3 - -129 -14.75 867.7MHz, SF9BW125, 4/5CR
2026-04-27 12:27:12 15.6875°C 55.8125% 3.31V v4 No position 10166 ttn.v3 - -128 -13.25 867.3MHz, SF9BW125, 4/5CR
2026-04-27 12:11:44 15.25°C 56.0625% 3.31V v4 No position 10165 ttn.v3 - -120 -15 868.1MHz, SF9BW125, 4/5CR
2026-04-27 11:56:16 15°C 64.5% 3.31V v4 No position 10164 ttn.v3 - -120 -7 867.1MHz, SF9BW125, 4/5CR
- -110 -13.5 867.1MHz, SF9BW125, 4/5CR
2026-04-27 10:38:57 11.75°C 71.75% 3.31V v4 No position 10159 ttn.v3 - -120 -10.5 868.1MHz, SF9BW125, 4/5CR
- -130 -14.25 868.1MHz, SF9BW125, 4/5CR
2026-04-27 08:35:23 7.5625°C 92.75% 3.32V v4 No position 10151 ttn.v3 - -129 -14.25 868.5MHz, SF9BW125, 4/5CR
2026-04-27 06:01:01 5.25°C 101.812% 3.32V v4 No position 10141 ttn.v3 - -119 -12.75 868.1MHz, SF9BW125, 4/5CR
2026-04-27 05:45:35 5.3125°C 101.125% 3.31V v4 No position 10140 ttn.v3 - -127 -12 867.7MHz, SF9BW125, 4/5CR
2026-04-27 04:28:25 6°C 97.375% 3.32V v4 No position 10135 ttn.v3 - -119 -8 868.1MHz, SF9BW125, 4/5CR
2026-04-27 04:12:58 6.125°C 96.5625% 3.32V v4 No position 10134 ttn.v3 - -124 -10.25 867.1MHz, SF9BW125, 4/5CR
2026-04-27 03:42:06 6.4375°C 95.75% 3.31V v4 No position 10132 ttn.v3 - -126 -13.5 867.9MHz, SF9BW125, 4/5CR
2026-04-27 03:11:13 6.75°C 95.0625% 3.32V v4 No position 10130 ttn.v3 - -119 -5.5 867.7MHz, SF9BW125, 4/5CR
2026-04-27 02:55:47 6.875°C 94.625% 3.32V v4 No position 10129 ttn.v3 - -119 -6.75 868.1MHz, SF9BW125, 4/5CR
2026-04-27 02:24:54 7.25°C 93.4375% 3.31V v4 No position 10127 ttn.v3 - -129 -14.75 868.5MHz, SF9BW125, 4/5CR
2026-04-27 02:09:28 7.4375°C 93.9375% 3.31V v4 No position 10126 ttn.v3 - -129 -13.5 867.3MHz, SF9BW125, 4/5CR
2026-04-27 01:38:35 7.9375°C 92.625% 3.32V v4 No position 10124 ttn.v3 - -120 -11.25 867.1MHz, SF9BW125, 4/5CR
- -130 -14 867.1MHz, SF9BW125, 4/5CR
2026-04-27 01:23:08 8.25°C 90.9375% 3.31V v4 No position 10123 ttn.v3 - -118 -8.5 868.1MHz, SF9BW125, 4/5CR
2026-04-27 00:36:48 8.9375°C 88.3125% 3.31V v4 No position 10120 ttn.v3 - -128 -12.25 867.7MHz, SF9BW125, 4/5CR
- -124 -15.5 867.7MHz, SF9BW125, 4/5CR
2026-04-26 23:50:28 9.5625°C 87.3125% 3.31V v4 No position 10117 ttn.v3 - -130 -14.75 868.1MHz, SF9BW125, 4/5CR
2026-04-26 20:45:03 12.1875°C 70.375% 3.31V v4 No position 10105 ttn.v3 - -120 -11 868.1MHz, SF9BW125, 4/5CR
- -128 -13.5 868.1MHz, SF9BW125, 4/5CR
2026-04-26 17:54:56 15.25°C 58.25% 3.31V v4 No position 10094 ttn.v3 - -132 -14.75 867.1MHz, SF9BW125, 4/5CR
2026-04-26 17:39:27 15.5°C 55.5625% 3.31V v4 No position 10093 ttn.v3 - -119 -11.25 868.1MHz, SF9BW125, 4/5CR
2026-04-26 16:53:03 15.875°C 54.5625% 3.31V v4 No position 10090 ttn.v3 - -122 -8.5 867.7MHz, SF9BW125, 4/5CR
2026-04-26 16:06:38 15.0625°C 58.375% 3.31V v4 No position 10087 ttn.v3 - -126 -12.5 868.1MHz, SF9BW125, 4/5CR
2026-04-26 14:49:17 15.1875°C 55.625% 3.31V v4 No position 10082 ttn.v3 - -129 -12.5 867.9MHz, SF9BW125, 4/5CR
2026-04-26 14:18:21 15.375°C 54.3125% 3.31V v4 No position 10080 ttn.v3 - -129 -13.25 867.7MHz, SF9BW125, 4/5CR
2026-04-26 14:04:58 15°C 54.375% 3.31V v4 No position 10079 ttn.v3 - -130 -15.75 868.5MHz, SF12BW125, 4/5CR
2026-04-26 13:01:05 14.125°C 55.875% 3.31V v4 No position 10075 ttn.v3 - -120 -12 868.1MHz, SF9BW125, 4/5CR
2026-04-26 12:45:37 13.8125°C 56.25% 3.31V v4 No position 10074 ttn.v3 - -123 -9.25 867.1MHz, SF9BW125, 4/5CR
2026-04-26 10:41:57 11.625°C 70.3125% 3.31V v4 No position 10066 ttn.v3 - -128 -12.5 867.3MHz, SF9BW125, 4/5CR
2026-04-26 10:11:02 10.875°C 76.1875% 3.31V v4 No position 10064 ttn.v3 - -123 -10.5 867.1MHz, SF9BW125, 4/5CR
- -130 -13.75 867.1MHz, SF9BW125, 4/5CR
2026-04-26 09:55:35 10.5°C 75.25% 3.31V v4 No position 10063 ttn.v3 - -129 -15.25 868.1MHz, SF9BW125, 4/5CR
2026-04-26 09:09:15 9.5625°C 79.875% 3.31V v4 No position 10060 ttn.v3 - -119 -7 867.7MHz, SF9BW125, 4/5CR
2026-04-26 07:52:00 9.9375°C 78.1875% 3.31V v4 No position 10055 ttn.v3 - -127 -13.5 868.5MHz, SF9BW125, 4/5CR
2026-04-26 07:36:33 8.875°C 84.4375% 3.31V v4 No position 10054 ttn.v3 - -123 -10 867.1MHz, SF9BW125, 4/5CR
- -129 -12.25 867.1MHz, SF9BW125, 4/5CR

Message count: 200
Node count: 1

Messages per node

Number of messages in list aboveNodes
200

Statistics per gateway

GatewayNumber of messagesNumber of nodesNodes
961
571
501 (2.732km)
121 (1.476km)
21
11

Filter by dataset